sensor_id;sensor_type;location;lat;lon;timestamp;P1;durP1;ratioP1;P2;durP2;ratioP2
261;SDS011;114;48.260;10.988;2023-04-15T00:00:05;4.90;;;4.50;;
261;SDS011;114;48.260;10.988;2023-04-15T00:02:31;5.83;;;4.67;;
261;SDS011;114;48.260;10.988;2023-04-15T00:04:57;5.77;;;5.17;;
261;SDS011;114;48.260;10.988;2023-04-15T00:07:23;7.33;;;4.87;;
261;SDS011;114;48.260;10.988;2023-04-15T00:09:48;7.70;;;4.70;;
261;SDS011;114;48.260;10.988;2023-04-15T00:12:14;11.60;;;4.50;;
261;SDS011;114;48.260;10.988;2023-04-15T00:14:40;6.97;;;4.57;;
261;SDS011;114;48.260;10.988;2023-04-15T00:17:06;8.23;;;4.70;;
261;SDS011;114;48.260;10.988;2023-04-15T00:19:32;4.80;;;4.40;;
261;SDS011;114;48.260;10.988;2023-04-15T00:21:58;4.90;;;4.23;;
261;SDS011;114;48.260;10.988;2023-04-15T00:24:24;5.37;;;4.10;;
261;SDS011;114;48.260;10.988;2023-04-15T00:26:50;5.50;;;5.00;;
261;SDS011;114;48.260;10.988;2023-04-15T00:29:16;8.90;;;4.90;;
261;SDS011;114;48.260;10.988;2023-04-15T00:31:42;6.77;;;5.30;;
261;SDS011;114;48.260;10.988;2023-04-15T00:34:08;6.80;;;5.10;;
261;SDS011;114;48.260;10.988;2023-04-15T00:36:34;6.20;;;4.60;;
261;SDS011;114;48.260;10.988;2023-04-15T00:39:00;5.13;;;4.40;;
261;SDS011;114;48.260;10.988;2023-04-15T00:41:27;9.83;;;5.30;;
261;SDS011;114;48.260;10.988;2023-04-15T00:43:53;4.80;;;4.40;;
261;SDS011;114;48.260;10.988;2023-04-15T00:46:18;4.80;;;4.40;;
261;SDS011;114;48.260;10.988;2023-04-15T00:48:45;5.80;;;4.47;;
261;SDS011;114;48.260;10.988;2023-04-15T00:51:11;5.73;;;4.17;;
261;SDS011;114;48.260;10.988;2023-04-15T00:53:38;4.20;;;3.90;;
261;SDS011;114;48.260;10.988;2023-04-15T00:56:04;7.30;;;5.07;;
261;SDS011;114;48.260;10.988;2023-04-15T00:58:31;5.03;;;4.30;;
261;SDS011;114;48.260;10.988;2023-04-15T01:00:57;5.13;;;4.07;;
261;SDS011;114;48.260;10.988;2023-04-15T01:03:24;6.10;;;4.40;;
261;SDS011;114;48.260;10.988;2023-04-15T01:05:49;8.53;;;4.33;;
261;SDS011;114;48.260;10.988;2023-04-15T01:08:22;7.90;;;4.60;;
261;SDS011;114;48.260;10.988;2023-04-15T01:10:57;5.47;;;4.70;;
261;SDS011;114;48.260;10.988;2023-04-15T01:13:26;6.10;;;3.70;;
261;SDS011;114;48.260;10.988;2023-04-15T01:15:52;7.27;;;4.13;;
261;SDS011;114;48.260;10.988;2023-04-15T01:18:18;7.63;;;4.70;;
261;SDS011;114;48.260;10.988;2023-04-15T01:20:44;9.53;;;4.97;;
261;SDS011;114;48.260;10.988;2023-04-15T01:23:10;7.60;;;4.77;;
261;SDS011;114;48.260;10.988;2023-04-15T01:25:37;10.13;;;4.27;;
261;SDS011;114;48.260;10.988;2023-04-15T01:28:03;4.40;;;4.00;;
261;SDS011;114;48.260;10.988;2023-04-15T01:30:33;9.30;;;4.03;;
261;SDS011;114;48.260;10.988;2023-04-15T01:32:59;4.00;;;3.60;;
261;SDS011;114;48.260;10.988;2023-04-15T01:35:25;5.10;;;3.33;;
261;SDS011;114;48.260;10.988;2023-04-15T01:37:52;5.13;;;4.63;;
261;SDS011;114;48.260;10.988;2023-04-15T01:40:18;6.17;;;3.83;;
261;SDS011;114;48.260;10.988;2023-04-15T01:42:44;4.60;;;3.83;;
261;SDS011;114;48.260;10.988;2023-04-15T01:45:10;6.20;;;4.50;;
261;SDS011;114;48.260;10.988;2023-04-15T01:47:37;5.27;;;4.10;;
261;SDS011;114;48.260;10.988;2023-04-15T01:50:03;7.43;;;4.50;;
261;SDS011;114;48.260;10.988;2023-04-15T01:52:29;4.80;;;3.93;;
261;SDS011;114;48.260;10.988;2023-04-15T01:54:56;6.67;;;4.23;;
261;SDS011;114;48.260;10.988;2023-04-15T01:57:22;4.60;;;3.40;;
261;SDS011;114;48.260;10.988;2023-04-15T01:59:47;13.07;;;4.47;;
261;SDS011;114;48.260;10.988;2023-04-15T02:02:13;4.07;;;3.77;;
261;SDS011;114;48.260;10.988;2023-04-15T02:04:39;5.97;;;4.70;;
261;SDS011;114;48.260;10.988;2023-04-15T02:07:05;5.73;;;4.23;;
261;SDS011;114;48.260;10.988;2023-04-15T02:09:31;12.20;;;4.87;;
261;SDS011;114;48.260;10.988;2023-04-15T02:11:57;4.67;;;4.30;;
261;SDS011;114;48.260;10.988;2023-04-15T02:14:22;5.93;;;3.73;;
261;SDS011;114;48.260;10.988;2023-04-15T02:16:48;4.07;;;3.73;;
261;SDS011;114;48.260;10.988;2023-04-15T02:19:14;4.60;;;4.07;;
261;SDS011;114;48.260;10.988;2023-04-15T02:21:40;5.23;;;4.07;;
261;SDS011;114;48.260;10.988;2023-04-15T02:24:05;8.30;;;3.70;;
261;SDS011;114;48.260;10.988;2023-04-15T02:26:31;5.53;;;3.80;;
261;SDS011;114;48.260;10.988;2023-04-15T02:28:57;3.43;;;3.13;;
261;SDS011;114;48.260;10.988;2023-04-15T02:31:24;5.63;;;4.07;;
261;SDS011;114;48.260;10.988;2023-04-15T02:33:50;5.50;;;3.57;;
261;SDS011;114;48.260;10.988;2023-04-15T02:36:16;9.93;;;4.17;;
261;SDS011;114;48.260;10.988;2023-04-15T02:38:42;5.30;;;3.47;;
261;SDS011;114;48.260;10.988;2023-04-15T02:41:08;3.63;;;3.20;;
261;SDS011;114;48.260;10.988;2023-04-15T02:43:34;6.70;;;3.37;;
261;SDS011;114;48.260;10.988;2023-04-15T02:46:00;8.47;;;3.60;;
261;SDS011;114;48.260;10.988;2023-04-15T02:48:26;3.60;;;3.30;;
261;SDS011;114;48.260;10.988;2023-04-15T02:50:52;4.80;;;3.67;;
261;SDS011;114;48.260;10.988;2023-04-15T02:53:17;5.27;;;3.30;;
261;SDS011;114;48.260;10.988;2023-04-15T02:55:44;8.30;;;4.10;;
261;SDS011;114;48.260;10.988;2023-04-15T02:58:10;4.40;;;3.00;;
261;SDS011;114;48.260;10.988;2023-04-15T03:00:36;4.03;;;3.50;;
261;SDS011;114;48.260;10.988;2023-04-15T03:03:02;5.27;;;3.63;;
261;SDS011;114;48.260;10.988;2023-04-15T03:05:29;10.73;;;4.07;;
261;SDS011;114;48.260;10.988;2023-04-15T03:07:55;4.30;;;3.90;;
261;SDS011;114;48.260;10.988;2023-04-15T03:10:21;3.83;;;3.40;;
261;SDS011;114;48.260;10.988;2023-04-15T03:12:47;6.63;;;3.20;;
261;SDS011;114;48.260;10.988;2023-04-15T03:15:13;4.70;;;3.03;;
261;SDS011;114;48.260;10.988;2023-04-15T03:17:39;6.00;;;3.17;;
261;SDS011;114;48.260;10.988;2023-04-15T03:20:05;3.77;;;3.13;;
261;SDS011;114;48.260;10.988;2023-04-15T03:22:31;6.90;;;3.60;;
261;SDS011;114;48.260;10.988;2023-04-15T03:24:57;4.50;;;2.87;;
261;SDS011;114;48.260;10.988;2023-04-15T03:27:23;9.17;;;4.30;;
261;SDS011;114;48.260;10.988;2023-04-15T03:29:49;8.23;;;2.93;;
261;SDS011;114;48.260;10.988;2023-04-15T03:32:16;7.37;;;3.63;;
261;SDS011;114;48.260;10.988;2023-04-15T03:34:42;11.83;;;2.80;;
261;SDS011;114;48.260;10.988;2023-04-15T03:37:07;8.87;;;4.67;;
261;SDS011;114;48.260;10.988;2023-04-15T03:39:33;4.00;;;3.10;;
261;SDS011;114;48.260;10.988;2023-04-15T03:42:00;6.80;;;3.30;;
261;SDS011;114;48.260;10.988;2023-04-15T03:44:26;5.00;;;3.10;;
261;SDS011;114;48.260;10.988;2023-04-15T03:46:52;6.40;;;4.03;;
261;SDS011;114;48.260;10.988;2023-04-15T03:49:18;6.60;;;3.17;;
261;SDS011;114;48.260;10.988;2023-04-15T03:51:44;6.93;;;3.53;;
261;SDS011;114;48.260;10.988;2023-04-15T03:54:10;3.13;;;2.67;;
261;SDS011;114;48.260;10.988;2023-04-15T03:56:39;6.07;;;2.40;;
261;SDS011;114;48.260;10.988;2023-04-15T03:59:05;3.67;;;3.00;;
261;SDS011;114;48.260;10.988;2023-04-15T04:01:31;3.70;;;2.70;;
261;SDS011;114;48.260;10.988;2023-04-15T04:03:56;6.97;;;3.20;;
261;SDS011;114;48.260;10.988;2023-04-15T04:06:22;4.60;;;2.70;;
261;SDS011;114;48.260;10.988;2023-04-15T04:08:48;6.73;;;2.43;;
261;SDS011;114;48.260;10.988;2023-04-15T04:11:14;4.93;;;2.77;;
261;SDS011;114;48.260;10.988;2023-04-15T04:13:40;5.17;;;2.50;;
261;SDS011;114;48.260;10.988;2023-04-15T04:16:06;2.97;;;2.63;;
261;SDS011;114;48.260;10.988;2023-04-15T04:18:32;11.50;;;2.70;;
261;SDS011;114;48.260;10.988;2023-04-15T04:20:57;4.77;;;2.93;;
261;SDS011;114;48.260;10.988;2023-04-15T04:23:24;5.50;;;2.70;;
261;SDS011;114;48.260;10.988;2023-04-15T04:25:50;8.70;;;2.80;;
261;SDS011;114;48.260;10.988;2023-04-15T04:28:16;9.70;;;3.27;;
261;SDS011;114;48.260;10.988;2023-04-15T04:30:42;2.77;;;2.50;;
261;SDS011;114;48.260;10.988;2023-04-15T04:33:08;6.57;;;3.20;;
261;SDS011;114;48.260;10.988;2023-04-15T04:35:34;11.40;;;3.00;;
261;SDS011;114;48.260;10.988;2023-04-15T04:38:02;10.87;;;2.77;;
261;SDS011;114;48.260;10.988;2023-04-15T04:40:28;8.07;;;2.80;;
261;SDS011;114;48.260;10.988;2023-04-15T04:42:54;2.87;;;2.50;;
261;SDS011;114;48.260;10.988;2023-04-15T04:45:20;8.33;;;2.50;;
261;SDS011;114;48.260;10.988;2023-04-15T04:47:46;2.97;;;2.17;;
261;SDS011;114;48.260;10.988;2023-04-15T04:50:12;9.40;;;2.53;;
261;SDS011;114;48.260;10.988;2023-04-15T04:52:38;6.23;;;3.20;;
261;SDS011;114;48.260;10.988;2023-04-15T04:55:04;4.40;;;2.10;;
261;SDS011;114;48.260;10.988;2023-04-15T04:57:30;2.10;;;1.73;;
261;SDS011;114;48.260;10.988;2023-04-15T04:59:56;7.30;;;2.60;;
261;SDS011;114;48.260;10.988;2023-04-15T05:02:22;3.90;;;2.43;;
261;SDS011;114;48.260;10.988;2023-04-15T05:04:47;8.07;;;2.67;;
261;SDS011;114;48.260;10.988;2023-04-15T05:07:16;8.50;;;2.17;;
261;SDS011;114;48.260;10.988;2023-04-15T05:09:41;2.90;;;2.20;;
261;SDS011;114;48.260;10.988;2023-04-15T05:12:07;2.50;;;2.17;;
261;SDS011;114;48.260;10.988;2023-04-15T05:14:38;3.67;;;2.57;;
261;SDS011;114;48.260;10.988;2023-04-15T05:17:03;5.00;;;3.60;;
261;SDS011;114;48.260;10.988;2023-04-15T05:19:29;5.93;;;3.50;;
261;SDS011;114;48.260;10.988;2023-04-15T05:21:55;9.27;;;4.43;;
261;SDS011;114;48.260;10.988;2023-04-15T05:24:22;17.17;;;3.50;;
261;SDS011;114;48.260;10.988;2023-04-15T05:26:47;7.97;;;3.13;;
261;SDS011;114;48.260;10.988;2023-04-15T05:29:13;3.37;;;2.50;;
261;SDS011;114;48.260;10.988;2023-04-15T05:31:39;3.70;;;1.50;;
261;SDS011;114;48.260;10.988;2023-04-15T05:34:05;2.63;;;1.47;;
261;SDS011;114;48.260;10.988;2023-04-15T05:36:31;10.27;;;3.03;;
261;SDS011;114;48.260;10.988;2023-04-15T05:38:57;3.83;;;1.63;;
261;SDS011;114;48.260;10.988;2023-04-15T05:41:22;3.70;;;2.60;;
261;SDS011;114;48.260;10.988;2023-04-15T05:43:48;7.93;;;3.93;;
261;SDS011;114;48.260;10.988;2023-04-15T05:46:14;7.07;;;3.83;;
261;SDS011;114;48.260;10.988;2023-04-15T05:48:40;3.73;;;2.20;;
261;SDS011;114;48.260;10.988;2023-04-15T05:51:06;4.10;;;2.00;;
261;SDS011;114;48.260;10.988;2023-04-15T05:53:32;2.50;;;1.60;;
261;SDS011;114;48.260;10.988;2023-04-15T05:55:57;1.67;;;1.20;;
261;SDS011;114;48.260;10.988;2023-04-15T05:58:23;7.17;;;1.83;;
261;SDS011;114;48.260;10.988;2023-04-15T06:00:49;2.83;;;2.60;;
261;SDS011;114;48.260;10.988;2023-04-15T06:03:15;2.83;;;1.33;;
261;SDS011;114;48.260;10.988;2023-04-15T06:05:41;5.97;;;2.33;;
261;SDS011;114;48.260;10.988;2023-04-15T06:08:09;1.20;;;1.10;;
261;SDS011;114;48.260;10.988;2023-04-15T06:10:35;4.00;;;1.63;;
261;SDS011;114;48.260;10.988;2023-04-15T06:13:04;2.03;;;1.30;;
261;SDS011;114;48.260;10.988;2023-04-15T06:15:31;11.67;;;1.80;;
261;SDS011;114;48.260;10.988;2023-04-15T06:17:56;1.90;;;1.33;;
261;SDS011;114;48.260;10.988;2023-04-15T06:20:22;4.83;;;1.30;;
261;SDS011;114;48.260;10.988;2023-04-15T06:22:48;2.60;;;1.37;;
261;SDS011;114;48.260;10.988;2023-04-15T06:25:14;3.57;;;1.73;;
261;SDS011;114;48.260;10.988;2023-04-15T06:27:39;3.33;;;1.90;;
261;SDS011;114;48.260;10.988;2023-04-15T06:30:05;3.30;;;1.60;;
261;SDS011;114;48.260;10.988;2023-04-15T06:32:32;5.30;;;1.37;;
261;SDS011;114;48.260;10.988;2023-04-15T06:34:58;3.30;;;1.47;;
261;SDS011;114;48.260;10.988;2023-04-15T06:37:24;2.73;;;1.47;;
261;SDS011;114;48.260;10.988;2023-04-15T06:39:50;3.63;;;1.17;;
261;SDS011;114;48.260;10.988;2023-04-15T06:42:15;3.10;;;1.37;;
261;SDS011;114;48.260;10.988;2023-04-15T06:44:41;3.50;;;1.17;;
261;SDS011;114;48.260;10.988;2023-04-15T06:47:07;1.90;;;1.33;;
261;SDS011;114;48.260;10.988;2023-04-15T06:49:33;1.83;;;1.47;;
261;SDS011;114;48.260;10.988;2023-04-15T06:51:59;1.20;;;1.10;;
261;SDS011;114;48.260;10.988;2023-04-15T06:54:25;2.70;;;1.30;;
261;SDS011;114;48.260;10.988;2023-04-15T06:56:51;8.20;;;1.30;;
261;SDS011;114;48.260;10.988;2023-04-15T06:59:17;1.40;;;0.97;;
261;SDS011;114;48.260;10.988;2023-04-15T07:01:43;1.90;;;1.20;;
261;SDS011;114;48.260;10.988;2023-04-15T07:04:09;1.60;;;1.50;;
261;SDS011;114;48.260;10.988;2023-04-15T07:06:35;5.13;;;1.30;;
261;SDS011;114;48.260;10.988;2023-04-15T07:09:01;3.37;;;1.30;;
261;SDS011;114;48.260;10.988;2023-04-15T07:11:27;2.03;;;1.17;;
261;SDS011;114;48.260;10.988;2023-04-15T07:13:53;1.70;;;1.27;;
261;SDS011;114;48.260;10.988;2023-04-15T07:16:18;7.40;;;1.70;;
261;SDS011;114;48.260;10.988;2023-04-15T07:18:45;2.57;;;0.83;;
261;SDS011;114;48.260;10.988;2023-04-15T07:21:10;1.47;;;1.37;;
261;SDS011;114;48.260;10.988;2023-04-15T07:23:36;1.27;;;1.03;;
261;SDS011;114;48.260;10.988;2023-04-15T07:26:02;2.27;;;1.00;;
261;SDS011;114;48.260;10.988;2023-04-15T07:28:28;3.80;;;1.23;;
261;SDS011;114;48.260;10.988;2023-04-15T07:30:54;1.87;;;1.07;;
261;SDS011;114;48.260;10.988;2023-04-15T07:33:23;7.37;;;2.10;;
261;SDS011;114;48.260;10.988;2023-04-15T07:35:49;17.33;;;1.40;;
261;SDS011;114;48.260;10.988;2023-04-15T07:38:15;1.70;;;0.80;;
261;SDS011;114;48.260;10.988;2023-04-15T07:40:40;4.83;;;1.80;;
261;SDS011;114;48.260;10.988;2023-04-15T07:43:07;3.03;;;1.40;;
261;SDS011;114;48.260;10.988;2023-04-15T07:45:33;3.80;;;1.30;;
261;SDS011;114;48.260;10.988;2023-04-15T07:47:59;2.07;;;1.03;;
261;SDS011;114;48.260;10.988;2023-04-15T07:50:26;6.73;;;1.97;;
261;SDS011;114;48.260;10.988;2023-04-15T07:52:52;4.17;;;1.10;;
261;SDS011;114;48.260;10.988;2023-04-15T07:55:18;1.53;;;1.10;;
261;SDS011;114;48.260;10.988;2023-04-15T07:57:47;2.80;;;0.83;;
261;SDS011;114;48.260;10.988;2023-04-15T08:00:14;2.20;;;1.10;;
261;SDS011;114;48.260;10.988;2023-04-15T08:02:40;3.03;;;1.43;;
261;SDS011;114;48.260;10.988;2023-04-15T08:05:07;6.93;;;2.00;;
261;SDS011;114;48.260;10.988;2023-04-15T08:07:35;2.50;;;1.40;;
261;SDS011;114;48.260;10.988;2023-04-15T08:10:02;5.17;;;1.60;;
261;SDS011;114;48.260;10.988;2023-04-15T08:12:28;1.47;;;0.87;;
261;SDS011;114;48.260;10.988;2023-04-15T08:14:54;3.83;;;1.37;;
261;SDS011;114;48.260;10.988;2023-04-15T08:17:21;2.47;;;1.30;;
261;SDS011;114;48.260;10.988;2023-04-15T08:19:47;4.80;;;1.27;;
261;SDS011;114;48.260;10.988;2023-04-15T08:22:13;2.10;;;1.33;;
261;SDS011;114;48.260;10.988;2023-04-15T08:24:39;2.20;;;1.40;;
261;SDS011;114;48.260;10.988;2023-04-15T08:27:05;8.73;;;1.50;;
261;SDS011;114;48.260;10.988;2023-04-15T08:29:32;6.00;;;1.73;;
261;SDS011;114;48.260;10.988;2023-04-15T08:31:58;2.83;;;1.23;;
261;SDS011;114;48.260;10.988;2023-04-15T08:34:25;4.50;;;1.40;;
261;SDS011;114;48.260;10.988;2023-04-15T08:36:51;2.23;;;1.60;;
261;SDS011;114;48.260;10.988;2023-04-15T08:39:17;2.07;;;1.70;;
261;SDS011;114;48.260;10.988;2023-04-15T08:41:47;1.90;;;1.63;;
261;SDS011;114;48.260;10.988;2023-04-15T08:44:23;7.87;;;1.73;;
261;SDS011;114;48.260;10.988;2023-04-15T08:46:50;8.27;;;2.53;;
261;SDS011;114;48.260;10.988;2023-04-15T08:49:17;1.80;;;1.63;;
261;SDS011;114;48.260;10.988;2023-04-15T08:51:45;3.63;;;1.67;;
261;SDS011;114;48.260;10.988;2023-04-15T08:54:11;6.20;;;2.13;;
261;SDS011;114;48.260;10.988;2023-04-15T08:56:37;5.60;;;1.60;;
261;SDS011;114;48.260;10.988;2023-04-15T08:59:03;8.23;;;2.17;;
261;SDS011;114;48.260;10.988;2023-04-15T09:01:30;4.10;;;1.80;;
261;SDS011;114;48.260;10.988;2023-04-15T09:03:56;5.17;;;1.43;;
261;SDS011;114;48.260;10.988;2023-04-15T09:06:24;14.70;;;2.00;;
261;SDS011;114;48.260;10.988;2023-04-15T09:08:50;2.30;;;1.37;;
261;SDS011;114;48.260;10.988;2023-04-15T09:11:17;2.20;;;1.40;;
261;SDS011;114;48.260;10.988;2023-04-15T09:13:43;3.17;;;1.20;;
261;SDS011;114;48.260;10.988;2023-04-15T09:16:10;4.63;;;2.57;;
261;SDS011;114;48.260;10.988;2023-04-15T09:18:37;2.50;;;1.40;;
261;SDS011;114;48.260;10.988;2023-04-15T09:21:05;1.67;;;1.40;;
261;SDS011;114;48.260;10.988;2023-04-15T09:23:35;2.67;;;1.60;;
261;SDS011;114;48.260;10.988;2023-04-15T09:26:03;4.87;;;2.00;;
261;SDS011;114;48.260;10.988;2023-04-15T09:28:30;6.10;;;2.30;;
261;SDS011;114;48.260;10.988;2023-04-15T09:30:56;1.97;;;1.70;;
261;SDS011;114;48.260;10.988;2023-04-15T09:33:24;3.23;;;1.87;;
261;SDS011;114;48.260;10.988;2023-04-15T09:36:01;1.80;;;1.70;;
261;SDS011;114;48.260;10.988;2023-04-15T09:38:30;2.80;;;2.23;;
261;SDS011;114;48.260;10.988;2023-04-15T09:40:57;3.17;;;1.57;;
261;SDS011;114;48.260;10.988;2023-04-15T09:43:36;5.80;;;2.10;;
261;SDS011;114;48.260;10.988;2023-04-15T09:46:03;9.23;;;2.30;;
261;SDS011;114;48.260;10.988;2023-04-15T09:48:29;2.20;;;1.73;;
261;SDS011;114;48.260;10.988;2023-04-15T09:50:58;7.80;;;1.97;;
261;SDS011;114;48.260;10.988;2023-04-15T09:53:25;4.07;;;2.70;;
261;SDS011;114;48.260;10.988;2023-04-15T09:55:53;3.57;;;2.27;;
261;SDS011;114;48.260;10.988;2023-04-15T10:00:46;3.10;;;2.27;;
261;SDS011;114;48.260;10.988;2023-04-15T10:03:18;3.40;;;2.00;;
261;SDS011;114;48.260;10.988;2023-04-15T10:05:46;3.93;;;2.40;;
261;SDS011;114;48.260;10.988;2023-04-15T10:08:15;2.37;;;2.00;;
261;SDS011;114;48.260;10.988;2023-04-15T10:10:43;3.70;;;2.70;;
261;SDS011;114;48.260;10.988;2023-04-15T10:13:10;2.50;;;1.90;;
261;SDS011;114;48.260;10.988;2023-04-15T10:15:50;12.03;;;2.30;;
261;SDS011;114;48.260;10.988;2023-04-15T10:18:19;2.47;;;2.27;;
261;SDS011;114;48.260;10.988;2023-04-15T10:20:47;6.27;;;2.40;;
261;SDS011;114;48.260;10.988;2023-04-15T10:23:14;4.53;;;2.57;;
261;SDS011;114;48.260;10.988;2023-04-15T10:25:41;2.93;;;2.00;;
261;SDS011;114;48.260;10.988;2023-04-15T10:28:07;4.50;;;3.37;;
261;SDS011;114;48.260;10.988;2023-04-15T10:30:34;4.00;;;2.40;;
261;SDS011;114;48.260;10.988;2023-04-15T10:33:01;6.00;;;2.17;;
261;SDS011;114;48.260;10.988;2023-04-15T10:35:31;6.77;;;2.47;;
261;SDS011;114;48.260;10.988;2023-04-15T10:37:58;8.00;;;2.70;;
261;SDS011;114;48.260;10.988;2023-04-15T10:40:30;4.00;;;2.07;;
261;SDS011;114;48.260;10.988;2023-04-15T10:43:00;2.10;;;1.90;;
261;SDS011;114;48.260;10.988;2023-04-15T10:45:34;3.93;;;2.23;;
261;SDS011;114;48.260;10.988;2023-04-15T10:48:02;3.93;;;2.30;;
261;SDS011;114;48.260;10.988;2023-04-15T10:50:31;11.37;;;3.30;;
261;SDS011;114;48.260;10.988;2023-04-15T10:52:57;5.23;;;2.63;;
261;SDS011;114;48.260;10.988;2023-04-15T10:55:24;3.37;;;2.47;;
261;SDS011;114;48.260;10.988;2023-04-15T10:57:57;3.20;;;2.47;;
261;SDS011;114;48.260;10.988;2023-04-15T11:00:26;2.80;;;2.60;;
261;SDS011;114;48.260;10.988;2023-04-15T11:02:54;8.00;;;2.80;;
261;SDS011;114;48.260;10.988;2023-04-15T11:08:09;11.50;;;3.93;;
261;SDS011;114;48.260;10.988;2023-04-15T11:13:15;2.83;;;2.27;;
261;SDS011;114;48.260;10.988;2023-04-15T11:15:45;3.50;;;2.50;;
261;SDS011;114;48.260;10.988;2023-04-15T11:18:15;6.70;;;5.17;;
261;SDS011;114;48.260;10.988;2023-04-15T11:20:49;6.40;;;3.90;;
261;SDS011;114;48.260;10.988;2023-04-15T11:23:34;3.90;;;3.10;;
261;SDS011;114;48.260;10.988;2023-04-15T11:26:06;3.80;;;3.50;;
261;SDS011;114;48.260;10.988;2023-04-15T11:28:34;4.70;;;3.10;;
261;SDS011;114;48.260;10.988;2023-04-15T11:31:07;4.20;;;3.07;;
261;SDS011;114;48.260;10.988;2023-04-15T11:33:35;3.53;;;3.23;;
261;SDS011;114;48.260;10.988;2023-04-15T11:36:01;4.27;;;3.87;;
261;SDS011;114;48.260;10.988;2023-04-15T11:38:28;3.80;;;3.30;;
261;SDS011;114;48.260;10.988;2023-04-15T11:40:55;3.60;;;3.30;;
261;SDS011;114;48.260;10.988;2023-04-15T11:43:21;4.03;;;3.23;;
261;SDS011;114;48.260;10.988;2023-04-15T11:45:49;3.57;;;1.43;;
261;SDS011;114;48.260;10.988;2023-04-15T11:48:24;1.47;;;0.90;;
261;SDS011;114;48.260;10.988;2023-04-15T11:50:54;2.53;;;1.40;;
261;SDS011;114;48.260;10.988;2023-04-15T11:53:24;2.50;;;0.90;;
261;SDS011;114;48.260;10.988;2023-04-15T11:56:01;1.17;;;0.90;;
261;SDS011;114;48.260;10.988;2023-04-15T11:58:27;1.00;;;0.80;;
261;SDS011;114;48.260;10.988;2023-04-15T12:00:56;1.10;;;1.00;;
261;SDS011;114;48.260;10.988;2023-04-15T12:03:28;1.73;;;0.97;;
261;SDS011;114;48.260;10.988;2023-04-15T12:06:04;1.37;;;0.87;;
261;SDS011;114;48.260;10.988;2023-04-15T12:11:41;8.73;;;0.80;;
261;SDS011;114;48.260;10.988;2023-04-15T12:14:15;2.10;;;0.90;;
261;SDS011;114;48.260;10.988;2023-04-15T12:16:45;2.50;;;0.90;;
261;SDS011;114;48.260;10.988;2023-04-15T12:19:13;2.03;;;1.13;;
261;SDS011;114;48.260;10.988;2023-04-15T12:21:46;2.30;;;1.17;;
261;SDS011;114;48.260;10.988;2023-04-15T12:24:12;4.70;;;1.20;;
261;SDS011;114;48.260;10.988;2023-04-15T12:29:17;3.27;;;1.00;;
261;SDS011;114;48.260;10.988;2023-04-15T12:34:18;1.53;;;1.20;;
261;SDS011;114;48.260;10.988;2023-04-15T12:36:54;3.80;;;1.10;;
261;SDS011;114;48.260;10.988;2023-04-15T12:39:21;1.63;;;1.53;;
261;SDS011;114;48.260;10.988;2023-04-15T12:41:48;1.77;;;1.67;;
261;SDS011;114;48.260;10.988;2023-04-15T12:44:14;2.30;;;1.80;;
261;SDS011;114;48.260;10.988;2023-04-15T12:46:40;2.93;;;1.30;;
261;SDS011;114;48.260;10.988;2023-04-15T12:49:06;1.00;;;0.73;;
261;SDS011;114;48.260;10.988;2023-04-15T12:51:33;1.63;;;1.40;;
261;SDS011;114;48.260;10.988;2023-04-15T12:53:59;1.93;;;1.30;;
261;SDS011;114;48.260;10.988;2023-04-15T12:56:25;4.23;;;1.17;;
261;SDS011;114;48.260;10.988;2023-04-15T12:58:51;1.97;;;1.30;;
261;SDS011;114;48.260;10.988;2023-04-15T13:01:18;6.20;;;1.60;;
261;SDS011;114;48.260;10.988;2023-04-15T13:03:44;6.13;;;1.60;;
261;SDS011;114;48.260;10.988;2023-04-15T13:06:11;2.03;;;1.77;;
261;SDS011;114;48.260;10.988;2023-04-15T13:08:37;3.93;;;2.00;;
261;SDS011;114;48.260;10.988;2023-04-15T13:11:02;5.13;;;2.50;;
261;SDS011;114;48.260;10.988;2023-04-15T13:13:28;3.57;;;2.13;;
261;SDS011;114;48.260;10.988;2023-04-15T13:15:56;6.93;;;2.10;;
261;SDS011;114;48.260;10.988;2023-04-15T13:18:22;1.50;;;1.40;;
261;SDS011;114;48.260;10.988;2023-04-15T13:20:48;4.60;;;2.13;;
261;SDS011;114;48.260;10.988;2023-04-15T13:23:14;3.83;;;2.50;;
261;SDS011;114;48.260;10.988;2023-04-15T13:25:40;4.37;;;1.47;;
261;SDS011;114;48.260;10.988;2023-04-15T13:28:06;1.53;;;1.37;;
261;SDS011;114;48.260;10.988;2023-04-15T13:30:32;2.10;;;1.27;;
261;SDS011;114;48.260;10.988;2023-04-15T13:32:58;3.23;;;1.27;;
261;SDS011;114;48.260;10.988;2023-04-15T13:35:23;2.03;;;1.23;;
261;SDS011;114;48.260;10.988;2023-04-15T13:37:49;1.57;;;1.17;;
261;SDS011;114;48.260;10.988;2023-04-15T13:40:15;2.00;;;1.00;;
261;SDS011;114;48.260;10.988;2023-04-15T13:42:41;1.97;;;1.53;;
261;SDS011;114;48.260;10.988;2023-04-15T13:45:08;4.73;;;1.37;;
261;SDS011;114;48.260;10.988;2023-04-15T13:47:35;9.03;;;1.70;;
261;SDS011;114;48.260;10.988;2023-04-15T13:50:01;4.73;;;1.87;;
261;SDS011;114;48.260;10.988;2023-04-15T13:52:27;9.30;;;3.47;;
261;SDS011;114;48.260;10.988;2023-04-15T13:54:53;6.60;;;2.50;;
261;SDS011;114;48.260;10.988;2023-04-15T13:57:20;3.77;;;2.30;;
261;SDS011;114;48.260;10.988;2023-04-15T13:59:46;3.00;;;2.40;;
261;SDS011;114;48.260;10.988;2023-04-15T14:02:11;1.87;;;1.77;;
261;SDS011;114;48.260;10.988;2023-04-15T14:04:37;3.80;;;1.60;;
261;SDS011;114;48.260;10.988;2023-04-15T14:07:03;3.03;;;1.93;;
261;SDS011;114;48.260;10.988;2023-04-15T14:09:29;7.07;;;3.03;;
261;SDS011;114;48.260;10.988;2023-04-15T14:11:55;9.53;;;2.53;;
261;SDS011;114;48.260;10.988;2023-04-15T14:14:24;4.27;;;3.43;;
261;SDS011;114;48.260;10.988;2023-04-15T14:16:52;2.93;;;1.80;;
261;SDS011;114;48.260;10.988;2023-04-15T14:19:18;6.47;;;2.03;;
261;SDS011;114;48.260;10.988;2023-04-15T14:21:44;2.00;;;1.90;;
261;SDS011;114;48.260;10.988;2023-04-15T14:24:10;1.60;;;1.50;;
261;SDS011;114;48.260;10.988;2023-04-15T14:26:36;1.63;;;1.53;;
261;SDS011;114;48.260;10.988;2023-04-15T14:29:02;1.47;;;1.30;;
261;SDS011;114;48.260;10.988;2023-04-15T14:31:27;2.20;;;1.27;;
261;SDS011;114;48.260;10.988;2023-04-15T14:33:53;2.93;;;1.50;;
261;SDS011;114;48.260;10.988;2023-04-15T14:36:19;1.87;;;1.03;;
261;SDS011;114;48.260;10.988;2023-04-15T14:38:45;1.10;;;1.10;;
261;SDS011;114;48.260;10.988;2023-04-15T14:41:10;2.70;;;1.57;;
261;SDS011;114;48.260;10.988;2023-04-15T14:43:36;1.53;;;1.33;;
261;SDS011;114;48.260;10.988;2023-04-15T14:46:02;1.70;;;1.60;;
261;SDS011;114;48.260;10.988;2023-04-15T14:48:29;2.03;;;1.70;;
261;SDS011;114;48.260;10.988;2023-04-15T14:50:55;2.03;;;1.30;;
261;SDS011;114;48.260;10.988;2023-04-15T14:53:22;1.50;;;1.40;;
261;SDS011;114;48.260;10.988;2023-04-15T14:55:48;1.43;;;1.27;;
261;SDS011;114;48.260;10.988;2023-04-15T14:58:13;2.93;;;1.33;;
261;SDS011;114;48.260;10.988;2023-04-15T15:00:40;3.97;;;1.20;;
261;SDS011;114;48.260;10.988;2023-04-15T15:03:08;2.07;;;1.93;;
261;SDS011;114;48.260;10.988;2023-04-15T15:05:42;4.80;;;1.47;;
261;SDS011;114;48.260;10.988;2023-04-15T15:08:09;2.70;;;1.80;;
261;SDS011;114;48.260;10.988;2023-04-15T15:10:36;2.63;;;2.43;;
261;SDS011;114;48.260;10.988;2023-04-15T15:13:03;6.30;;;3.43;;
261;SDS011;114;48.260;10.988;2023-04-15T15:15:32;2.77;;;2.53;;
261;SDS011;114;48.260;10.988;2023-04-15T15:17:59;2.60;;;2.30;;
261;SDS011;114;48.260;10.988;2023-04-15T15:20:25;2.67;;;2.17;;
261;SDS011;114;48.260;10.988;2023-04-15T15:22:51;2.73;;;1.20;;
261;SDS011;114;48.260;10.988;2023-04-15T15:25:17;2.37;;;1.40;;
261;SDS011;114;48.260;10.988;2023-04-15T15:27:43;1.80;;;1.57;;
261;SDS011;114;48.260;10.988;2023-04-15T15:30:09;1.70;;;1.60;;
261;SDS011;114;48.260;10.988;2023-04-15T15:32:37;2.40;;;1.63;;
261;SDS011;114;48.260;10.988;2023-04-15T15:35:06;1.57;;;1.30;;
261;SDS011;114;48.260;10.988;2023-04-15T15:37:32;1.50;;;1.40;;
261;SDS011;114;48.260;10.988;2023-04-15T15:39:59;3.37;;;2.23;;
261;SDS011;114;48.260;10.988;2023-04-15T15:42:25;1.60;;;1.50;;